Time;durP1;ratioP1;P1;durP2;ratioP2;P2;SDS_P1;SDS_P2;PMS_P1;PMS_P2;Temp;Humidity;BMP_temperature;BMP_pressure;BME280_temperature;BME280_humidity;BME280_pressure;Samples;Min_cycle;Max_cycle;Signal;HPM_P1;HPM_P2
2023/07/24 00:01:14;;;;;;;0.60;0.60;;;;;;;17.69;61.86;99078.22;10335988;28;20053;-59
2023/07/24 00:06:16;;;;;;;4.10;1.10;;;;;;;17.46;62.55;99071.84;10337519;28;20054;-58
2023/07/24 00:11:18;;;;;;;1.25;1.00;;;;;;;17.55;62.84;99068.25;10338925;28;20141;-59
2023/07/24 00:16:20;;;;;;;1.35;0.95;;;;;;;17.63;63.02;99063.00;10339538;28;20046;-59
2023/07/24 00:21:22;;;;;;;2.90;1.00;;;;;;;17.69;62.71;99057.06;10338570;28;20144;-58
2023/07/24 00:26:25;;;;;;;1.50;1.02;;;;;;;17.76;62.84;99057.28;10343410;28;20045;-59
2023/07/24 00:31:27;;;;;;;1.30;0.82;;;;;;;17.80;62.79;99053.34;10344720;28;20045;-59
2023/07/24 00:36:29;;;;;;;1.02;0.75;;;;;;;17.66;62.67;99046.81;10347368;28;20064;-59
2023/07/24 00:41:31;;;;;;;1.42;0.90;;;;;;;17.67;62.94;99045.81;10344153;28;20041;-59
2023/07/24 00:46:35;;;;;;;1.38;0.93;;;;;;;17.71;63.06;99038.41;10344706;28;20050;-58
2023/07/24 00:51:37;;;;;;;1.00;0.50;;;;;;;17.73;62.56;99037.25;10342007;28;20041;-59
2023/07/24 00:56:39;;;;;;;1.65;0.95;;;;;;;17.79;62.49;99028.69;10346464;28;20054;-59
2023/07/24 01:01:42;;;;;;;1.52;0.80;;;;;;;17.64;62.49;99013.59;10343819;28;20045;-59
2023/07/24 01:06:45;;;;;;;1.48;0.90;;;;;;;17.58;62.63;99019.50;10344436;28;20061;-59
2023/07/24 01:11:52;;;;;;;1.50;1.00;;;;;;;17.57;63.07;99016.03;10342894;28;20050;-59
2023/07/24 01:16:57;;;;;;;4.40;0.90;;;;;;;17.45;63.01;99016.44;10345086;28;20144;-59
2023/07/24 01:22:03;;;;;;;1.08;0.80;;;;;;;17.52;63.06;99010.41;10343305;28;20890;-59
2023/07/24 01:27:07;;;;;;;1.70;1.00;;;;;;;17.52;62.99;99001.63;10353491;28;20429;-59
2023/07/24 01:32:09;;;;;;;1.77;0.95;;;;;;;17.40;63.09;98992.31;10344202;28;20089;-59
2023/07/24 01:37:12;;;;;;;1.52;0.80;;;;;;;17.28;62.92;98981.13;10340495;28;20045;-59
2023/07/24 01:42:14;;;;;;;1.65;1.20;;;;;;;17.30;63.53;98968.59;10343075;28;20427;-59
2023/07/24 01:47:16;;;;;;;1.05;0.80;;;;;;;17.31;63.61;98983.47;10343144;28;20525;-59
2023/07/24 01:52:19;;;;;;;5.00;1.05;;;;;;;17.37;63.70;98982.06;10325501;28;20572;-59
2023/07/24 01:57:21;;;;;;;1.27;0.80;;;;;;;17.31;63.87;98972.06;10342087;28;20053;-59
2023/07/24 02:02:23;;;;;;;1.40;0.95;;;;;;;17.28;63.84;98965.28;10361536;28;20066;-59
2023/07/24 02:07:25;;;;;;;2.08;0.95;;;;;;;17.13;63.91;98968.69;10350453;28;20042;-59
2023/07/24 02:12:27;;;;;;;1.45;0.80;;;;;;;17.22;63.99;98973.84;10348205;28;20053;-59
2023/07/24 02:17:29;;;;;;;2.22;1.15;;;;;;;17.28;64.08;98977.69;10351693;28;20042;-59
2023/07/24 02:22:31;;;;;;;1.38;0.80;;;;;;;17.20;63.97;98967.06;10348751;28;20049;-59
2023/07/24 02:27:34;;;;;;;1.50;0.63;;;;;;;17.17;64.57;98962.09;10348286;28;20057;-59
2023/07/24 02:32:36;;;;;;;2.30;0.90;;;;;;;17.09;64.68;98949.69;10347241;28;20093;-59
2023/07/24 02:37:38;;;;;;;1.00;0.80;;;;;;;16.98;64.68;98949.94;10348806;28;20395;-59
2023/07/24 02:42:40;;;;;;;3.22;1.25;;;;;;;17.08;64.69;98955.13;10349514;28;20050;-58
2023/07/24 02:47:42;;;;;;;2.08;1.20;;;;;;;17.08;64.77;98953.28;10349848;28;20502;-59
2023/07/24 02:52:44;;;;;;;1.73;0.90;;;;;;;17.22;64.69;98936.84;10348520;28;20124;-59
2023/07/24 02:57:46;;;;;;;1.67;0.98;;;;;;;17.27;64.82;98950.44;10346774;28;20726;-59
2023/07/24 03:02:48;;;;;;;1.65;0.80;;;;;;;17.35;64.32;98942.56;10345877;28;20056;-59
2023/07/24 03:07:51;;;;;;;0.80;0.70;;;;;;;17.19;64.84;98931.91;10341909;28;20046;-59
2023/07/24 03:12:54;;;;;;;1.25;0.85;;;;;;;17.11;64.68;98917.81;10356564;28;20057;-59
2023/07/24 03:17:56;;;;;;;1.67;1.08;;;;;;;16.93;64.97;98902.88;10342325;28;20309;-58
2023/07/24 03:22:58;;;;;;;2.40;1.00;;;;;;;16.88;65.29;98888.47;10339516;28;20056;-59
2023/07/24 03:28:00;;;;;;;2.05;1.00;;;;;;;16.89;65.08;98898.06;10340815;28;20517;-59
2023/07/24 03:33:02;;;;;;;1.42;0.90;;;;;;;16.92;65.19;98903.00;10339836;28;20565;-59
2023/07/24 03:38:06;;;;;;;3.53;1.00;;;;;;;16.91;65.36;98874.94;10341774;28;20240;-59
2023/07/24 03:43:08;;;;;;;2.05;1.20;;;;;;;16.91;65.41;98878.44;10340952;28;20050;-59
2023/07/24 03:48:10;;;;;;;2.13;1.30;;;;;;;16.83;65.10;98869.63;10338615;28;20061;-59
2023/07/24 03:53:12;;;;;;;3.83;1.30;;;;;;;16.45;66.00;98846.28;10340927;28;20136;-59
2023/07/24 03:58:14;;;;;;;1.08;0.90;;;;;;;16.24;66.31;98855.31;10339828;28;20108;-59
2023/07/24 04:03:16;;;;;;;3.20;1.10;;;;;;;16.47;66.23;98853.06;10348628;28;20057;-59
2023/07/24 04:08:18;;;;;;;2.25;1.08;;;;;;;16.47;66.28;98846.97;10347136;28;20046;-59
2023/07/24 04:13:20;;;;;;;1.80;1.00;;;;;;;16.50;66.58;98844.00;10347319;28;20587;-59
2023/07/24 04:18:22;;;;;;;1.73;1.10;;;;;;;16.94;65.85;98848.22;10346022;28;20060;-59
2023/07/24 04:23:24;;;;;;;1.50;1.00;;;;;;;17.27;65.11;98865.03;10348983;28;20048;-58
2023/07/24 04:28:26;;;;;;;1.58;0.95;;;;;;;17.47;64.80;98859.34;10346944;28;20346;-59
2023/07/24 04:33:28;;;;;;;1.98;1.20;;;;;;;18.15;63.80;98865.25;10346931;28;20441;-59
2023/07/24 04:38:31;;;;;;;1.55;1.02;;;;;;;18.53;62.75;98867.25;10347951;28;20057;-59
2023/07/24 04:43:34;;;;;;;1.83;1.10;;;;;;;18.55;62.04;98865.25;10345745;28;20049;-59
2023/07/24 04:48:36;;;;;;;2.05;0.90;;;;;;;18.20;62.53;98870.09;10344471;28;20060;-59
2023/07/24 04:53:38;;;;;;;1.75;1.02;;;;;;;18.03;62.87;98881.63;10346758;28;20405;-59
2023/07/24 04:58:40;;;;;;;3.38;1.00;;;;;;;17.96;63.23;98889.38;10347044;28;20054;-59
2023/07/24 05:03:42;;;;;;;2.92;1.30;;;;;;;17.91;62.95;98899.63;10346375;28;20045;-60
2023/07/24 05:08:44;;;;;;;1.52;1.00;;;;;;;17.98;62.95;98905.91;10345878;28;20127;-59
2023/07/24 05:13:46;;;;;;;1.95;1.20;;;;;;;17.89;63.23;98908.72;10345450;28;20521;-59
2023/07/24 05:18:48;;;;;;;1.70;1.00;;;;;;;17.76;63.62;98903.88;10344696;28;20580;-59
2023/07/24 05:23:50;;;;;;;1.30;0.82;;;;;;;17.81;63.53;98894.47;10347823;28;20048;-59
2023/07/24 05:28:52;;;;;;;2.08;1.10;;;;;;;18.19;63.16;98873.69;10344333;28;20131;-59
2023/07/24 05:33:54;;;;;;;1.35;1.00;;;;;;;18.44;62.92;98888.63;10344816;28;20057;-59
2023/07/24 05:38:57;;;;;;;5.75;1.45;;;;;;;18.59;62.63;98893.06;10345358;28;20052;-59
2023/07/24 05:43:59;;;;;;;3.85;1.40;;;;;;;18.85;61.87;98887.53;10344396;28;20052;-59
2023/07/24 05:49:01;;;;;;;1.10;0.93;;;;;;;19.00;61.58;98883.19;10340385;28;20041;-59
2023/07/24 05:54:03;;;;;;;1.27;1.17;;;;;;;18.88;61.72;98887.22;10344967;28;20312;-59
2023/07/24 05:59:05;;;;;;;1.75;1.08;;;;;;;19.01;61.42;98876.09;10343565;28;20791;-59
2023/07/24 06:04:07;;;;;;;2.03;1.00;;;;;;;19.03;61.57;98868.81;10343578;28;20386;-59
2023/07/24 06:09:09;;;;;;;1.40;0.90;;;;;;;19.01;61.56;98876.09;10343420;28;20393;-59
2023/07/24 06:14:11;;;;;;;1.80;1.05;;;;;;;18.98;61.51;98868.47;10343001;28;20050;-59
2023/07/24 06:19:13;;;;;;;1.33;0.90;;;;;;;18.95;61.73;98871.47;10341757;28;20046;-59
2023/07/24 06:24:15;;;;;;;1.83;1.13;;;;;;;18.95;61.97;98872.28;10342991;28;20046;-59
2023/07/24 06:29:17;;;;;;;1.63;1.10;;;;;;;19.00;61.94;98863.81;10341291;28;20417;-62
2023/07/24 06:34:19;;;;;;;1.77;1.00;;;;;;;18.85;61.61;98847.00;10331226;28;20716;-62
2023/07/24 06:39:21;;;;;;;2.58;1.20;;;;;;;18.78;62.39;98838.06;10331070;28;20045;-62
2023/07/24 06:44:23;;;;;;;3.47;1.02;;;;;;;18.65;62.84;98831.47;10337339;28;20054;-61
2023/07/24 06:49:25;;;;;;;5.65;1.00;;;;;;;18.65;62.98;98834.13;10337793;28;20100;-62
2023/07/24 06:54:27;;;;;;;1.02;0.80;;;;;;;18.95;62.65;98818.47;10334540;28;20045;-61
2023/07/24 06:59:29;;;;;;;1.55;1.00;;;;;;;19.09;62.83;98837.16;10335617;28;20041;-61
2023/07/24 07:04:31;;;;;;;14.85;2.33;;;;;;;19.33;62.43;98845.00;10335811;28;20496;-61
2023/07/24 07:09:33;;;;;;;2.42;1.30;;;;;;;19.48;62.17;98846.94;10333523;28;20620;-61
2023/07/24 07:14:35;;;;;;;2.67;1.35;;;;;;;19.74;61.64;98831.50;10341124;28;20381;-61
2023/07/24 07:19:37;;;;;;;2.20;1.00;;;;;;;19.94;61.56;98822.09;10336255;28;20271;-61
2023/07/24 07:24:40;;;;;;;3.05;1.30;;;;;;;19.90;61.28;98820.81;10337672;28;20184;-61
2023/07/24 07:29:42;;;;;;;8.10;1.67;;;;;;;19.87;61.80;98832.59;10337819;28;20057;-61
2023/07/24 07:34:44;;;;;;;1.73;1.10;;;;;;;19.91;61.71;98827.78;10343470;28;20566;-61
2023/07/24 07:39:46;;;;;;;2.10;1.25;;;;;;;20.05;60.97;98819.03;10341022;28;20421;-61
2023/07/24 07:44:48;;;;;;;5.35;1.38;;;;;;;20.22;60.09;98821.38;10339878;28;20470;-61
2023/07/24 07:49:50;;;;;;;2.65;1.42;;;;;;;20.21;59.86;98830.31;10349240;28;20409;-61
2023/07/24 07:54:52;;;;;;;4.07;1.63;;;;;;;20.06;58.85;98820.69;10348884;28;20049;-61
2023/07/24 07:59:54;;;;;;;3.50;1.58;;;;;;;19.97;58.29;98814.59;10349761;28;20041;-61
2023/07/24 08:04:56;;;;;;;2.67;1.42;;;;;;;20.12;57.14;98801.38;10347646;28;20115;-61
2023/07/24 08:10:02;;;;;;;3.13;1.30;;;;;;;20.25;56.48;98804.25;10348261;28;20072;-61
2023/07/24 08:15:05;;;;;;;2.58;1.33;;;;;;;20.45;55.44;98807.22;10347467;28;20060;-61
2023/07/24 08:20:07;;;;;;;3.58;1.60;;;;;;;20.52;54.67;98811.59;10346413;28;20049;-61
2023/07/24 08:25:09;;;;;;;4.18;1.95;;;;;;;20.96;53.13;98804.53;10347590;28;20217;-61
2023/07/24 08:30:12;;;;;;;4.95;1.75;;;;;;;21.19;51.30;98787.63;10341035;28;20101;-61
2023/07/24 08:35:15;;;;;;;3.78;1.60;;;;;;;21.60;50.85;98796.69;10342689;28;20052;-62
2023/07/24 08:40:17;;;;;;;5.20;1.95;;;;;;;21.74;49.61;98803.81;10344590;28;20100;-62
2023/07/24 08:45:20;;;;;;;4.13;1.70;;;;;;;21.99;48.81;98801.56;10339067;28;20045;-61
2023/07/24 08:50:23;;;;;;;4.93;1.77;;;;;;;22.36;47.75;98809.28;10340534;28;20487;-61
2023/07/24 08:55:26;;;;;;;3.55;1.30;;;;;;;22.73;47.34;98800.13;10340896;28;20270;-61
2023/07/24 09:00:28;;;;;;;3.70;1.42;;;;;;;22.74;46.73;98794.63;10334253;28;20154;-61
2023/07/24 09:05:30;;;;;;;3.30;1.42;;;;;;;22.81;46.31;98792.00;10326445;28;20042;-61
2023/07/24 09:10:32;;;;;;;4.10;1.70;;;;;;;23.03;45.90;98780.19;10332042;28;20057;-61
2023/07/24 09:15:45;;;;;;;4.13;2.00;;;;;;;23.42;42.64;98788.38;10327585;28;20040;-62
2023/07/24 09:20:47;;;;;;;3.72;1.92;;;;;;;24.56;43.83;98761.34;10331982;28;20042;-61
2023/07/24 09:25:50;;;;;;;3.38;1.42;;;;;;;25.05;42.21;98737.56;10330233;28;20061;-62
2023/07/24 09:30:54;;;;;;;2.53;1.38;;;;;;;26.00;40.38;98725.84;10338593;28;20540;-62
2023/07/24 09:35:58;;;;;;;3.97;1.60;;;;;;;26.93;39.80;98703.25;10341772;28;20050;-61
2023/07/24 09:41:03;;;;;;;2.78;1.38;;;;;;;27.42;38.93;98688.78;10338761;28;20048;-61
2023/07/24 09:46:06;;;;;;;3.08;1.65;;;;;;;27.72;38.03;98689.56;10336829;28;20054;-62
2023/07/24 09:51:13;;;;;;;2.53;1.40;;;;;;;28.43;36.73;98675.91;10342136;28;20440;-62
2023/07/24 09:56:17;;;;;;;3.88;1.40;;;;;;;28.80;36.19;98666.47;10334100;28;20052;-61
2023/07/24 10:01:20;;;;;;;2.97;1.38;;;;;;;28.97;35.83;98682.72;10339388;28;20124;-62
2023/07/24 10:06:22;;;;;;;3.28;1.17;;;;;;;28.58;35.41;98678.94;10339285;28;20173;-62
2023/07/24 10:11:25;;;;;;;2.88;1.30;;;;;;;28.65;35.47;98681.47;10338869;28;20054;-62
2023/07/24 10:16:27;;;;;;;2.55;1.20;;;;;;;28.71;34.89;98685.91;10337399;28;20049;-61
2023/07/24 10:21:36;;;;;;;3.15;1.52;;;;;;;28.81;34.86;98683.41;10456034;27;21328;-61
2023/07/24 10:26:38;;;;;;;2.75;1.30;;;;;;;28.75;34.19;98663.66;10454186;28;20464;-61
2023/07/24 10:31:40;;;;;;;3.45;1.42;;;;;;;28.45;34.95;98673.81;10453072;28;20052;-61
2023/07/24 10:36:42;;;;;;;4.50;1.58;;;;;;;28.15;35.46;98662.34;10451560;28;20498;-61
2023/07/24 10:41:46;;;;;;;2.95;1.50;;;;;;;28.02;35.20;98673.34;10450633;28;20047;-61
2023/07/24 10:46:48;;;;;;;3.65;1.67;;;;;;;27.45;35.80;98670.31;10451625;28;20116;-61
2023/07/24 10:51:58;;;;;;;4.15;1.58;;;;;;;27.06;34.49;98681.59;10455368;28;20118;-61
2023/07/24 10:57:00;;;;;;;3.75;1.80;;;;;;;26.50;36.77;98671.16;10449820;28;20052;-62
2023/07/24 11:02:04;;;;;;;3.75;1.63;;;;;;;26.66;36.28;98665.22;10457149;28;20047;-61
2023/07/24 11:07:06;;;;;;;2.47;1.42;;;;;;;26.82;36.35;98650.34;10452099;28;20047;-61
2023/07/24 11:12:15;;;;;;;2.90;1.60;;;;;;;26.56;35.92;98661.41;10453976;28;20213;-61
2023/07/24 11:17:18;;;;;;;3.00;1.50;;;;;;;26.98;36.45;98644.34;10454949;28;20128;-61
2023/07/24 11:22:22;;;;;;;5.10;2.20;;;;;;;28.04;35.09;98628.22;10458098;28;20462;-61
2023/07/24 11:27:25;;;;;;;3.70;1.50;;;;;;;28.64;34.20;98629.56;10449811;28;20147;-61
2023/07/24 11:32:27;;;;;;;3.40;1.58;;;;;;;28.13;33.99;98616.91;10427714;28;20076;-62
2023/07/24 11:37:30;;;;;;;3.38;1.52;;;;;;;28.24;33.41;98596.41;10426781;28;20832;-62
2023/07/24 11:42:32;;;;;;;2.88;1.40;;;;;;;27.92;34.29;98597.84;10428322;28;20048;-61
2023/07/24 11:47:48;;;;;;;3.53;1.52;;;;;;;27.38;34.49;98601.66;10425368;28;20123;-61
2023/07/24 11:52:53;;;;;;;3.25;1.65;;;;;;;27.28;34.85;98590.69;10425968;28;20077;-61
2023/07/24 11:57:59;;;;;;;2.25;1.35;;;;;;;27.24;34.51;98584.94;10424335;28;20053;-61
2023/07/24 12:03:04;;;;;;;2.72;1.23;;;;;;;27.68;34.76;98575.53;10428530;28;20075;-61
2023/07/24 12:08:07;;;;;;;2.80;1.40;;;;;;;27.80;33.99;98562.13;10420767;28;20060;-61
2023/07/24 12:13:09;;;;;;;3.22;1.77;;;;;;;27.98;34.22;98548.53;10427310;28;20493;-60
2023/07/24 12:18:11;;;;;;;3.92;1.50;;;;;;;27.56;34.39;98531.75;10425010;28;20085;-61
2023/07/24 12:23:13;;;;;;;2.58;1.30;;;;;;;27.31;34.71;98542.72;10425907;28;20056;-61
2023/07/24 12:28:15;;;;;;;2.10;1.23;;;;;;;26.98;35.70;98526.28;10419448;28;20147;-61
2023/07/24 12:33:17;;;;;;;2.95;1.20;;;;;;;26.99;36.00;98517.19;10416891;28;20051;-61
2023/07/24 12:38:20;;;;;;;2.80;1.27;;;;;;;27.26;35.55;98526.47;10422997;28;20067;-61
2023/07/24 12:43:22;;;;;;;2.40;1.20;;;;;;;26.92;35.70;98526.38;10414712;28;20045;-60
2023/07/24 12:48:24;;;;;;;1.83;1.20;;;;;;;26.85;36.26;98536.41;10416242;28;20517;-60
2023/07/24 12:53:26;;;;;;;3.75;1.50;;;;;;;26.67;35.96;98534.59;10422493;28;20210;-60
2023/07/24 12:58:48;;;;;;;2.13;1.20;;;;;;;26.29;37.18;98532.19;10422672;28;20049;-61
2023/07/24 13:03:50;;;;;;;1.17;0.90;;;;;;;26.06;39.30;98548.13;10422211;28;20116;-60
2023/07/24 13:08:52;;;;;;;2.42;1.13;;;;;;;26.05;41.57;98559.09;10422315;28;20040;-60
2023/07/24 13:13:54;;;;;;;3.55;1.40;;;;;;;25.68;42.67;98561.72;10418643;28;20494;-60
2023/07/24 13:18:56;;;;;;;4.15;1.30;;;;;;;25.33;43.97;98583.81;10452282;28;20520;-60
2023/07/24 13:23:58;;;;;;;4.00;1.27;;;;;;;25.39;44.45;98570.41;10422667;28;20049;-60
2023/07/24 13:29:00;;;;;;;1.33;0.90;;;;;;;25.41;45.14;98567.50;10424296;28;20060;-60
2023/07/24 13:34:03;;;;;;;3.60;1.40;;;;;;;25.00;45.63;98568.00;10416664;28;20106;-60
2023/07/24 13:39:06;;;;;;;3.05;1.17;;;;;;;25.50;45.02;98552.81;10420376;28;20040;-60
2023/07/24 13:44:08;;;;;;;2.53;1.42;;;;;;;25.67;44.49;98560.06;10412430;28;20041;-61
2023/07/24 13:49:10;;;;;;;3.38;1.40;;;;;;;25.43;44.56;98546.69;10411286;28;20115;-61
2023/07/24 13:54:12;;;;;;;3.10;1.20;;;;;;;25.28;44.36;98539.00;10418375;28;20160;-61
2023/07/24 13:59:14;;;;;;;1.80;1.00;;;;;;;25.63;43.38;98524.06;10422177;28;20044;-60
2023/07/24 14:04:16;;;;;;;4.45;1.15;;;;;;;25.70;42.82;98506.06;10418841;28;20133;-60
2023/07/24 14:09:19;;;;;;;2.72;0.70;;;;;;;25.65;42.40;98507.78;10422347;28;20131;-60
2023/07/24 14:14:23;;;;;;;1.58;0.95;;;;;;;25.85;42.30;98498.47;10420013;28;20487;-61
2023/07/24 14:19:25;;;;;;;1.55;0.98;;;;;;;25.78;41.83;98486.19;10419634;28;20505;-61
2023/07/24 14:24:27;;;;;;;1.73;0.90;;;;;;;25.80;41.35;98500.19;10421867;28;20055;-61
2023/07/24 14:29:30;;;;;;;1.20;0.57;;;;;;;25.95;40.14;98491.78;10422372;28;20068;-60
2023/07/24 14:34:32;;;;;;;1.20;0.70;;;;;;;25.92;40.42;98506.44;10418457;28;20052;-61
2023/07/24 14:39:34;;;;;;;2.90;1.30;;;;;;;25.39;39.78;98492.78;10418653;28;20435;-60
2023/07/24 14:44:36;;;;;;;0.88;0.73;;;;;;;25.37;39.63;98489.50;10419666;28;20304;-60
2023/07/24 14:49:38;;;;;;;1.08;0.77;;;;;;;25.44;39.55;98492.13;10416684;28;20053;-60
2023/07/24 14:54:40;;;;;;;0.80;0.80;;;;;;;25.45;39.68;98491.91;10421102;28;20599;-60
2023/07/24 14:59:43;;;;;;;0.93;0.55;;;;;;;25.44;39.44;98484.94;10416865;28;20544;-60
2023/07/24 15:04:45;;;;;;;0.82;0.60;;;;;;;25.46;39.26;98484.69;10420797;28;20049;-60
2023/07/24 15:09:48;;;;;;;0.70;0.60;;;;;;;25.02;38.93;98494.53;10428025;28;20129;-60
2023/07/24 15:14:50;;;;;;;1.67;0.80;;;;;;;25.19;39.00;98483.28;10425817;28;20052;-60
2023/07/24 15:19:52;;;;;;;0.85;0.60;;;;;;;25.24;38.21;98484.28;10427616;28;20049;-60
2023/07/24 15:24:54;;;;;;;2.88;0.93;;;;;;;25.03;38.38;98493.50;10423123;28;20772;-60
2023/07/24 15:29:56;;;;;;;0.60;0.50;;;;;;;24.98;38.72;98497.84;10427856;28;20086;-60
2023/07/24 15:35:00;;;;;;;0.38;0.38;;;;;;;24.84;38.95;98512.38;10423704;28;20049;-60
2023/07/24 15:40:02;;;;;;;1.48;0.75;;;;;;;24.86;38.95;98512.97;10427267;28;20049;-60
2023/07/24 15:45:05;;;;;;;1.10;0.65;;;;;;;24.95;38.92;98517.84;10427110;28;20454;-60
2023/07/24 15:50:07;;;;;;;1.00;0.75;;;;;;;25.11;38.77;98521.84;10426585;28;20041;-60
2023/07/24 15:55:10;;;;;;;1.73;0.90;;;;;;;24.90;37.88;98520.34;10392031;28;20079;-60
2023/07/24 16:00:12;;;;;;;1.88;0.90;;;;;;;24.84;36.46;98520.38;10426675;28;20037;-61
2023/07/24 16:05:20;;;;;;;1.08;0.70;;;;;;;24.98;35.80;98528.09;10425644;28;20130;-60
2023/07/24 16:10:22;;;;;;;0.60;0.43;;;;;;;25.19;36.09;98520.75;10421913;28;20083;-60
2023/07/24 16:15:24;;;;;;;0.88;0.68;;;;;;;25.42;35.77;98534.38;10453352;28;20068;-60
2023/07/24 16:20:29;;;;;;;1.35;0.70;;;;;;;25.24;35.98;98553.84;10421908;28;20044;-60
2023/07/24 16:25:31;;;;;;;1.35;0.98;;;;;;;24.75;38.21;98569.84;10423799;28;20148;-60
2023/07/24 16:30:33;;;;;;;1.65;0.80;;;;;;;24.29;39.36;98573.50;10425718;28;20135;-60
2023/07/24 16:35:35;;;;;;;2.30;0.63;;;;;;;24.11;40.04;98576.06;10421213;28;20179;-60
2023/07/24 16:40:37;;;;;;;13.35;1.33;;;;;;;24.13;40.11;98579.34;10422534;28;20128;-60
2023/07/24 16:45:40;;;;;;;2.65;0.77;;;;;;;24.42;40.00;98585.19;10455345;28;20084;-60
2023/07/24 16:50:42;;;;;;;1.75;0.60;;;;;;;24.15;40.20;98598.66;10422665;28;20412;-60
2023/07/24 16:55:44;;;;;;;1.05;0.75;;;;;;;23.93;40.68;98602.56;10418614;28;20128;-61
2023/07/24 17:00:46;;;;;;;0.90;0.60;;;;;;;23.77;41.10;98603.03;10424111;28;20052;-61
2023/07/24 17:05:48;;;;;;;0.82;0.50;;;;;;;23.48;40.75;98620.28;10420748;28;20045;-61
2023/07/24 17:10:50;;;;;;;0.65;0.65;;;;;;;23.43;40.31;98620.06;10422032;28;20053;-61
2023/07/24 17:15:52;;;;;;;1.05;0.70;;;;;;;23.31;39.26;98621.66;10451238;28;20540;-61
2023/07/24 17:20:54;;;;;;;1.05;0.60;;;;;;;23.39;38.93;98634.81;10423621;28;20056;-60
2023/07/24 17:25:56;;;;;;;1.42;0.60;;;;;;;23.30;38.60;98649.38;10420783;28;21012;-60
2023/07/24 17:30:58;;;;;;;1.17;0.82;;;;;;;22.97;38.71;98663.66;10423401;28;20049;-61
2023/07/24 17:36:00;;;;;;;0.50;0.45;;;;;;;22.76;38.86;98669.16;10421639;28;20187;-60
2023/07/24 17:41:03;;;;;;;0.35;0.32;;;;;;;22.71;38.87;98677.72;10420358;28;20052;-60
2023/07/24 17:46:05;;;;;;;1.38;0.77;;;;;;;22.74;38.57;98687.19;10417665;28;20052;-60
2023/07/24 17:51:11;;;;;;;0.63;0.57;;;;;;;22.75;38.74;98686.16;10419440;28;20048;-62
2023/07/24 17:56:13;;;;;;;0.93;0.77;;;;;;;22.69;38.36;98675.25;10416447;28;20063;-62
2023/07/24 18:01:15;;;;;;;0.68;0.47;;;;;;;22.66;38.51;98688.13;10420621;28;20081;-61
2023/07/24 18:06:17;;;;;;;0.98;0.43;;;;;;;22.64;38.63;98691.00;10417194;28;20045;-61
2023/07/24 18:11:20;;;;;;;1.17;0.50;;;;;;;22.75;38.37;98688.81;10415627;28;20456;-61
2023/07/24 18:16:22;;;;;;;0.57;0.38;;;;;;;22.58;38.70;98696.28;10409665;28;20037;-61
2023/07/24 18:21:24;;;;;;;0.60;0.47;;;;;;;22.48;38.54;98691.34;10417870;28;20464;-61
2023/07/24 18:26:26;;;;;;;0.43;0.43;;;;;;;22.30;38.92;98688.38;10411125;28;20060;-61
2023/07/24 18:31:29;;;;;;;0.65;0.40;;;;;;;22.05;39.40;98695.16;10418917;28;20052;-61
2023/07/24 18:36:32;;;;;;;0.90;0.50;;;;;;;21.83;39.70;98696.19;10415752;28;20045;-61
2023/07/24 18:41:34;;;;;;;0.43;0.30;;;;;;;21.55;40.30;98706.81;10425820;28;20111;-61
2023/07/24 18:46:36;;;;;;;0.52;0.45;;;;;;;21.43;40.43;98716.31;10438081;28;20548;-61
2023/07/24 18:51:38;;;;;;;0.30;0.30;;;;;;;21.27;40.83;98719.19;10432868;28;20041;-61
2023/07/24 18:56:40;;;;;;;1.50;0.60;;;;;;;21.20;40.90;98717.47;10431159;28;20061;-59
2023/07/24 19:01:42;;;;;;;0.73;0.55;;;;;;;21.04;41.22;98727.31;10432531;28;20041;-59
2023/07/24 19:06:44;;;;;;;1.05;0.60;;;;;;;20.88;41.54;98737.34;10432554;28;20767;-59
2023/07/24 19:11:46;;;;;;;1.23;0.77;;;;;;;20.69;41.76;98746.72;10431257;28;20049;-59
2023/07/24 19:16:49;;;;;;;0.88;0.70;;;;;;;20.54;42.06;98748.50;10430557;28;20048;-59
2023/07/24 19:21:51;;;;;;;0.82;0.40;;;;;;;20.45;42.10;98760.25;10427303;28;20094;-59
2023/07/24 19:26:53;;;;;;;1.80;0.60;;;;;;;20.23;42.69;98774.41;10427149;28;20053;-59
2023/07/24 19:31:55;;;;;;;0.40;0.40;;;;;;;20.09;43.08;98777.88;10425982;28;20493;-59
2023/07/24 19:36:57;;;;;;;0.50;0.50;;;;;;;20.08;43.10;98794.78;10427395;28;20049;-59
2023/07/24 19:41:59;;;;;;;1.15;0.47;;;;;;;19.92;43.33;98805.53;10429076;28;20048;-59
2023/07/24 19:47:03;;;;;;;0.75;0.60;;;;;;;19.74;43.83;98812.94;10429577;28;20126;-59
2023/07/24 19:52:05;;;;;;;0.65;0.45;;;;;;;19.70;43.77;98824.91;10427228;28;20389;-59
2023/07/24 19:57:07;;;;;;;0.45;0.40;;;;;;;19.68;43.61;98837.53;10459282;28;20059;-59
2023/07/24 20:02:09;;;;;;;1.23;0.70;;;;;;;19.55;43.91;98830.13;10427251;28;20603;-59
2023/07/24 20:07:12;;;;;;;1.63;0.60;;;;;;;19.55;44.09;98834.59;10427212;28;20427;-59
2023/07/24 20:12:16;;;;;;;0.60;0.40;;;;;;;19.54;44.01;98847.06;10426118;28;20033;-59
2023/07/24 20:17:18;;;;;;;0.50;0.50;;;;;;;19.55;44.13;98847.88;10436144;28;20150;-59
2023/07/24 20:22:21;;;;;;;4.43;0.95;;;;;;;19.43;44.08;98850.94;10418803;28;20159;-59
2023/07/24 20:27:24;;;;;;;0.98;0.50;;;;;;;19.38;44.22;98849.78;10416221;28;20037;-59
2023/07/24 20:32:29;;;;;;;0.73;0.60;;;;;;;19.27;44.55;98851.00;10424090;28;20044;-59
2023/07/24 20:37:31;;;;;;;0.75;0.63;;;;;;;19.27;44.50;98866.91;10420824;28;20425;-59
2023/07/24 20:42:33;;;;;;;1.20;0.60;;;;;;;19.26;44.58;98864.41;10424531;28;20102;-59
2023/07/24 20:47:35;;;;;;;1.45;0.70;;;;;;;19.08;45.01;98874.44;10424839;28;20140;-59
2023/07/24 20:52:39;;;;;;;2.92;0.95;;;;;;;18.93;45.82;98876.13;10403288;28;20459;-59
2023/07/24 20:57:41;;;;;;;0.75;0.60;;;;;;;18.87;46.69;98872.28;10422883;28;20455;-59
2023/07/24 21:02:42;;;;;;;1.08;0.80;;;;;;;18.77;46.90;98874.31;10424822;28;20059;-59
2023/07/24 21:07:45;;;;;;;1.23;0.70;;;;;;;18.44;47.90;98878.03;10423586;28;20037;-58
2023/07/24 21:12:47;;;;;;;2.08;0.65;;;;;;;18.51;48.36;98879.81;10424874;28;20045;-58
2023/07/24 21:17:49;;;;;;;1.23;0.70;;;;;;;18.62;48.47;98876.00;10425491;28;20048;-59
2023/07/24 21:22:51;;;;;;;2.63;0.70;;;;;;;18.58;49.28;98890.59;10421328;28;20087;-59
2023/07/24 21:27:53;;;;;;;1.85;0.70;;;;;;;18.65;49.18;98891.56;10425112;28;20041;-58
2023/07/24 21:32:55;;;;;;;1.90;0.80;;;;;;;18.67;48.87;98889.56;10423820;28;20049;-58
2023/07/24 21:37:57;;;;;;;1.35;1.02;;;;;;;18.58;49.31;98891.38;10422973;28;20417;-59
2023/07/24 21:42:59;;;;;;;1.08;0.80;;;;;;;18.47;49.72;98886.44;10423508;28;20053;-59
2023/07/24 21:48:05;;;;;;;1.27;0.73;;;;;;;18.28;50.26;98889.41;10425081;28;20488;-58
2023/07/24 21:53:08;;;;;;;3.08;1.52;;;;;;;18.14;50.76;98886.56;10423314;28;20060;-59
2023/07/24 21:58:10;;;;;;;0.75;0.73;;;;;;;18.07;51.21;98878.47;10424388;28;20059;-58
2023/07/24 22:03:12;;;;;;;2.42;1.00;;;;;;;17.97;51.77;98879.63;10422617;28;21045;-59
2023/07/24 22:08:14;;;;;;;2.38;1.30;;;;;;;18.01;51.62;98871.19;10422226;28;20045;-59
2023/07/24 22:13:17;;;;;;;2.08;1.27;;;;;;;17.95;51.52;98876.31;10423744;28;20098;-58
2023/07/24 22:18:19;;;;;;;1.85;1.00;;;;;;;17.82;52.03;98871.50;10423975;28;20049;-58
2023/07/24 22:23:23;;;;;;;1.15;0.85;;;;;;;17.78;52.05;98873.66;10421904;28;20053;-59
2023/07/24 22:28:25;;;;;;;1.10;0.98;;;;;;;17.82;52.26;98871.50;10423314;28;20140;-59
2023/07/24 22:33:27;;;;;;;2.25;1.17;;;;;;;17.77;52.18;98866.69;10421347;28;20128;-58
2023/07/24 22:38:29;;;;;;;1.63;1.00;;;;;;;17.83;52.64;98875.81;10422671;28;20047;-59
2023/07/24 22:43:31;;;;;;;4.25;1.05;;;;;;;17.82;52.42;98872.34;10421504;28;20088;-58
2023/07/24 22:48:33;;;;;;;1.15;1.00;;;;;;;17.74;52.83;98885.53;10422950;28;20049;-59
2023/07/24 22:53:35;;;;;;;1.95;1.10;;;;;;;17.66;52.92;98877.59;10422740;28;20557;-58
2023/07/24 22:58:59;;;;;;;2.60;1.13;;;;;;;17.63;53.82;98882.34;10423692;28;20429;-58
2023/07/24 23:04:01;;;;;;;1.83;1.20;;;;;;;17.63;53.25;98890.28;10420696;28;20056;-59
2023/07/24 23:09:03;;;;;;;1.85;1.20;;;;;;;17.72;53.20;98898.09;10422517;28;20523;-58
2023/07/24 23:14:05;;;;;;;1.35;1.10;;;;;;;17.71;53.00;98895.59;10422393;28;20048;-58
2023/07/24 23:19:07;;;;;;;1.30;1.10;;;;;;;17.74;53.03;98895.28;10420061;28;20416;-59
2023/07/24 23:24:09;;;;;;;1.27;1.05;;;;;;;17.73;53.27;98894.44;10420542;28;20489;-58